createdAt,value
2018-12-12T00:00:22.923Z,29.53
2018-12-12T00:05:30.833Z,20.33
2018-12-12T00:10:35.673Z,20.80
2018-12-12T00:15:40.716Z,28.90
2018-12-12T00:20:45.608Z,27.00
2018-12-12T00:25:53.282Z,11.27
2018-12-12T00:30:56.741Z,15.20
2018-12-12T00:36:00.198Z,14.33
2018-12-12T00:41:09.240Z,13.23
2018-12-12T00:46:17.934Z,9.87
2018-12-12T00:51:20.866Z,16.97
2018-12-12T00:56:28.758Z,9.90
2018-12-12T01:01:32.748Z,11.37
2018-12-12T01:06:36.326Z,26.87
2018-12-12T01:11:46.931Z,19.30
2018-12-12T01:16:50.678Z,19.90
2018-12-12T01:21:54.394Z,14.13
2018-12-12T01:26:58.229Z,18.20
2018-12-12T01:32:01.815Z,21.73
2018-12-12T01:37:05.496Z,10.10
2018-12-12T01:42:08.417Z,14.80
2018-12-12T01:47:12.332Z,18.53
2018-12-12T01:52:17.319Z,13.53
2018-12-12T01:57:20.358Z,8.07
2018-12-12T02:02:23.287Z,19.50
2018-12-12T02:07:29.554Z,12.03
2018-12-12T02:12:35.446Z,22.73
2018-12-12T02:17:38.382Z,28.23
2018-12-12T02:22:42.297Z,21.43
2018-12-12T02:27:45.286Z,20.93
2018-12-12T02:32:48.778Z,28.93
2018-12-12T02:37:52.719Z,16.27
2018-12-12T02:42:56.348Z,23.60
2018-12-12T02:48:00.838Z,19.13
2018-12-12T02:53:06.758Z,32.07
2018-12-12T02:58:10.325Z,32.43
2018-12-12T03:03:15.334Z,24.50
2018-12-12T03:08:19.211Z,19.33
2018-12-12T03:13:25.053Z,19.73
2018-12-12T03:18:27.927Z,22.97
2018-12-12T03:23:32.734Z,22.37
2018-12-12T03:28:35.631Z,26.27
2018-12-12T03:33:39.250Z,32.37
2018-12-12T03:38:42.248Z,19.80
2018-12-12T03:43:45.158Z,22.80
2018-12-12T03:48:48.056Z,16.57
2018-12-12T03:53:52.765Z,25.67
2018-12-12T03:58:56.314Z,22.17
2018-12-12T04:04:05.260Z,16.27
2018-12-12T04:09:08.258Z,19.87
2018-12-12T04:14:11.793Z,25.43
2018-12-12T04:19:14.882Z,28.20
2018-12-12T04:24:20.602Z,26.50
2018-12-12T04:29:29.430Z,24.00
2018-12-12T04:34:33.359Z,23.30
2018-12-12T04:39:36.958Z,38.53
2018-12-12T04:44:39.854Z,18.97
2018-12-12T04:49:43.822Z,17.90
2018-12-12T04:54:47.310Z,16.00
2018-12-12T04:59:50.844Z,28.50
2018-12-12T05:04:54.790Z,33.20
2018-12-12T05:09:59.441Z,21.40
2018-12-12T05:15:05.062Z,28.57
2018-12-12T05:20:08.933Z,22.70
2018-12-12T05:25:15.550Z,22.90
2018-12-12T05:30:18.666Z,19.30
2018-12-12T05:35:22.210Z,28.17
2018-12-12T05:40:28.381Z,18.87
2018-12-12T05:45:31.608Z,22.07
2018-12-12T05:50:35.409Z,24.83
2018-12-12T05:55:38.364Z,23.80
2018-12-12T06:00:41.287Z,23.20
2018-12-12T06:05:44.207Z,26.80
2018-12-12T06:10:47.219Z,18.43
2018-12-12T06:15:50.810Z,22.33
2018-12-12T06:20:54.817Z,23.63
2018-12-12T06:25:58.338Z,27.83
2018-12-12T06:31:01.330Z,28.63
2018-12-12T06:36:04.979Z,22.67
2018-12-12T06:41:08.028Z,24.00
2018-12-12T06:46:13.183Z,29.10
2018-12-12T06:51:19.365Z,25.60
2018-12-12T06:56:24.027Z,18.90
2018-12-12T07:01:27.209Z,25.97
2018-12-12T07:06:30.127Z,19.93
2018-12-12T07:11:33.845Z,20.07
2018-12-12T07:16:36.778Z,28.03
2018-12-12T07:21:40.444Z,27.13
2018-12-12T07:26:44.034Z,25.93
2018-12-12T07:31:47.959Z,24.07
2018-12-12T07:36:51.885Z,24.77
2018-12-12T07:41:56.586Z,27.13
2018-12-12T07:47:02.504Z,25.73
2018-12-12T07:52:08.319Z,25.47
2018-12-12T07:57:12.726Z,22.17
2018-12-12T08:02:16.302Z,23.90
2018-12-12T08:07:20.011Z,21.97
2018-12-12T08:12:25.959Z,17.73
2018-12-12T08:17:28.890Z,20.03
2018-12-12T08:22:32.284Z,18.57
2018-12-12T08:27:35.865Z,20.23
2018-12-12T08:32:41.778Z,18.43
2018-12-12T08:37:45.290Z,17.50
2018-12-12T08:42:48.175Z,17.93
2018-12-12T08:47:51.128Z,14.83
2018-12-12T08:52:55.834Z,14.10
2018-12-12T08:57:58.722Z,15.60
2018-12-12T09:03:01.678Z,17.73
2018-12-12T09:08:08.135Z,11.97
2018-12-12T09:13:16.974Z,15.43
2018-12-12T09:18:20.390Z,12.57
2018-12-12T09:23:28.293Z,13.17
2018-12-12T09:28:31.354Z,8.33
2018-12-12T09:33:36.871Z,17.47
2018-12-12T09:38:42.328Z,11.97
2018-12-12T09:43:46.490Z,15.23
2018-12-12T09:48:51.432Z,15.27
2018-12-12T09:54:01.382Z,14.73
2018-12-12T09:59:07.398Z,3.90
2018-12-12T10:04:10.342Z,3.70
2018-12-12T10:09:14.107Z,3.63
2018-12-12T10:14:17.915Z,2.67
2018-12-12T10:19:20.918Z,5.50
2018-12-12T10:24:24.114Z,3.43
2018-12-12T10:29:27.914Z,3.40
2018-12-12T10:34:31.326Z,4.33
2018-12-12T10:39:35.377Z,3.90
2018-12-12T10:44:38.959Z,3.03
2018-12-12T10:49:41.896Z,4.20
2018-12-12T10:54:45.406Z,7.63
2018-12-12T10:59:49.442Z,3.87
2018-12-12T11:04:56.830Z,3.80
2018-12-12T11:10:00.322Z,6.53
2018-12-12T11:15:03.610Z,8.43
2018-12-12T11:20:07.394Z,4.67
2018-12-12T11:25:10.866Z,3.50
2018-12-12T11:30:14.390Z,3.73
2018-12-12T11:35:17.278Z,4.47
2018-12-12T11:40:20.110Z,6.43
2018-12-12T11:45:23.930Z,3.83
2018-12-12T11:50:27.454Z,6.67
2018-12-12T11:55:31.005Z,7.17
2018-12-12T12:00:33.939Z,5.87
2018-12-12T12:05:39.814Z,5.90
2018-12-12T12:10:42.747Z,5.83
2018-12-12T12:15:50.559Z,2.93
2018-12-12T12:20:58.344Z,5.27
2018-12-12T12:26:01.927Z,4.77
2018-12-12T12:31:08.114Z,7.17
2018-12-12T12:36:14.016Z,4.93
2018-12-12T12:41:18.463Z,3.97
2018-12-12T12:46:22.894Z,6.93
2018-12-12T12:51:28.786Z,7.47
2018-12-12T12:56:37.646Z,7.93
2018-12-12T13:01:46.547Z,5.80
2018-12-12T13:06:49.618Z,8.33
2018-12-12T13:11:52.605Z,7.23
2018-12-12T13:16:56.491Z,7.60
2018-12-12T13:22:00.030Z,7.53
2018-12-12T13:27:05.094Z,5.60
2018-12-12T13:32:08.978Z,3.90
2018-12-12T13:37:12.506Z,6.20
2018-12-12T13:42:16.406Z,3.73
2018-12-12T13:47:19.282Z,5.80
2018-12-12T13:52:25.274Z,10.43
2018-12-12T13:57:28.217Z,3.57
2018-12-12T14:02:34.386Z,6.07
2018-12-12T14:07:41.978Z,4.83
2018-12-12T14:12:45.022Z,4.07
2018-12-12T14:17:48.715Z,4.40
2018-12-12T14:22:57.678Z,4.13
2018-12-12T14:28:00.919Z,4.80
2018-12-12T14:33:04.611Z,3.50
2018-12-12T14:38:09.506Z,3.87
2018-12-12T14:43:12.496Z,3.50
2018-12-12T14:48:15.325Z,4.47
2018-12-12T14:53:19.961Z,4.87
2018-12-12T14:58:23.486Z,8.43
2018-12-12T15:03:26.995Z,4.20
2018-12-12T15:08:30.520Z,3.70
2018-12-12T15:13:33.986Z,3.40
2018-12-12T15:18:40.195Z,3.77
2018-12-12T15:23:44.006Z,6.23
2018-12-12T15:28:46.910Z,6.80
2018-12-12T15:33:50.612Z,8.43
2018-12-12T15:38:53.525Z,3.90
2018-12-12T15:43:56.471Z,4.87
2018-12-12T15:49:02.499Z,7.10
2018-12-12T15:54:05.444Z,9.47
2018-12-12T15:59:10.162Z,12.30
2018-12-12T16:04:14.250Z,6.00
2018-12-12T16:09:17.992Z,2.67
2018-12-12T16:14:20.903Z,3.50
2018-12-12T16:19:27.227Z,5.20
2018-12-12T16:24:30.504Z,7.07
2018-12-12T16:29:37.353Z,7.53
2018-12-12T16:34:40.923Z,4.57
2018-12-12T16:39:47.819Z,4.63
2018-12-12T16:44:51.746Z,6.40
2018-12-12T16:49:57.090Z,9.00
2018-12-12T16:54:59.990Z,3.00
2018-12-12T17:00:07.317Z,3.93
2018-12-12T17:05:11.014Z,4.47
2018-12-12T17:10:14.574Z,6.47
2018-12-12T17:15:18.046Z,5.83
2018-12-12T17:20:21.036Z,5.93
2018-12-12T17:25:24.543Z,6.33
2018-12-12T17:30:28.114Z,5.33
2018-12-12T17:35:30.958Z,4.17
2018-12-12T17:40:33.882Z,3.37
2018-12-12T17:45:39.782Z,5.30
2018-12-12T17:50:43.570Z,4.97
2018-12-12T17:55:46.476Z,8.27
2018-12-12T18:00:52.343Z,14.60
2018-12-12T18:05:59.226Z,9.43
2018-12-12T18:11:02.178Z,2.97
2018-12-12T18:16:06.722Z,7.17
2018-12-12T18:21:10.615Z,6.70
2018-12-12T18:26:16.042Z,3.57
2018-12-12T18:31:19.570Z,2.80
2018-12-12T18:36:26.763Z,3.80
2018-12-12T18:41:31.274Z,5.20
2018-12-12T18:46:38.902Z,5.93
2018-12-12T18:51:48.136Z,1.77
2018-12-12T18:56:54.290Z,2.50
2018-12-12T19:02:00.359Z,2.43
2018-12-12T19:07:03.483Z,7.17
2018-12-12T19:12:13.419Z,2.33
2018-12-12T19:17:19.390Z,2.90
2018-12-12T19:22:22.262Z,1.90
2018-12-12T19:27:25.410Z,4.20
2018-12-12T19:32:28.304Z,3.90
2018-12-12T19:37:37.337Z,1.10
2018-12-12T19:42:42.812Z,2.13
2018-12-12T19:47:45.778Z,6.30
2018-12-12T19:52:48.757Z,6.13
2018-12-12T19:57:52.731Z,5.87
2018-12-12T20:02:56.390Z,5.57
2018-12-12T20:07:59.377Z,4.07
2018-12-12T20:13:02.265Z,1.60
2018-12-12T20:18:05.662Z,5.90
2018-12-12T20:23:09.280Z,4.83
2018-12-12T20:28:15.144Z,7.43
2018-12-12T20:33:18.798Z,6.33
2018-12-12T20:38:22.682Z,6.30
2018-12-12T20:43:32.526Z,9.60
2018-12-12T20:48:41.191Z,10.57
2018-12-12T20:53:49.826Z,2.27
2018-12-12T20:58:58.790Z,1.37
2018-12-12T21:04:01.708Z,7.63
2018-12-12T21:09:11.672Z,1.30
2018-12-12T21:14:20.353Z,12.03
2018-12-12T21:50:49.848Z,7.03
2018-12-12T21:55:58.702Z,10.20
2018-12-12T22:01:07.416Z,18.83
2018-12-12T22:06:16.119Z,13.77
2018-12-12T22:11:20.032Z,13.83
2018-12-12T22:16:29.574Z,9.07
2018-12-12T22:21:39.190Z,7.87
2018-12-12T22:26:48.569Z,6.13
2018-12-12T22:31:51.498Z,11.37
2018-12-12T22:37:00.670Z,6.87
2018-12-12T22:42:03.882Z,17.70
2018-12-12T22:47:08.674Z,11.60
2018-12-12T22:52:11.682Z,11.97
2018-12-12T22:57:15.451Z,13.13
2018-12-12T23:02:21.616Z,12.07
2018-12-12T23:07:27.678Z,14.17
2018-12-12T23:12:30.541Z,19.27
2018-12-12T23:17:35.230Z,9.50
2018-12-12T23:22:38.709Z,10.27
2018-12-12T23:27:47.502Z,6.83
2018-12-12T23:32:56.302Z,13.73
2018-12-12T23:37:59.744Z,11.00
2018-12-12T23:43:08.686Z,8.57
2018-12-12T23:48:17.389Z,7.47
2018-12-12T23:53:26.212Z,14.33
